createdAt,value
2019-01-27T00:03:12.908Z,29.83
2019-01-27T00:13:16.529Z,28.37
2019-01-27T00:23:20.115Z,29.27
2019-01-27T00:33:23.695Z,24.73
2019-01-27T00:43:27.282Z,22.43
2019-01-27T00:53:31.848Z,19.40
2019-01-27T01:03:35.437Z,15.63
2019-01-27T01:13:39.021Z,16.07
2019-01-27T01:23:42.629Z,17.43
2019-01-27T01:33:46.216Z,21.80
2019-01-27T01:43:49.783Z,22.30
2019-01-27T01:53:53.361Z,22.67
2019-01-27T02:03:56.965Z,23.37
2019-01-27T02:14:00.562Z,24.43
2019-01-27T02:24:04.185Z,23.97
2019-01-27T02:34:07.800Z,21.87
2019-01-27T02:44:11.370Z,18.90
2019-01-27T02:54:14.981Z,16.17
2019-01-27T03:04:18.563Z,14.40
2019-01-27T03:14:22.310Z,15.33
2019-01-27T03:24:25.887Z,12.40
2019-01-27T03:34:29.454Z,12.00
2019-01-27T03:44:33.027Z,12.07
2019-01-27T03:54:36.603Z,9.90
2019-01-27T04:04:40.178Z,8.83
2019-01-27T04:14:43.775Z,9.00
2019-01-27T04:24:47.337Z,8.93
2019-01-27T04:34:50.918Z,8.73
2019-01-27T04:44:54.479Z,8.40
2019-01-27T04:54:58.062Z,8.10
2019-01-27T05:05:01.640Z,7.20
2019-01-27T05:15:07.750Z,7.60
2019-01-27T05:25:11.770Z,6.47
2019-01-27T05:35:15.343Z,7.70
2019-01-27T05:45:18.987Z,7.93
2019-01-27T05:55:22.579Z,6.27
2019-01-27T06:05:26.150Z,8.63
2019-01-27T06:15:29.737Z,7.57
2019-01-27T06:25:33.330Z,7.33
2019-01-27T06:35:37.692Z,7.17
2019-01-27T06:45:41.262Z,6.77
2019-01-27T06:55:44.846Z,6.90
2019-01-27T07:05:57.135Z,8.17
2019-01-27T07:16:10.894Z,7.83
2019-01-27T07:26:36.358Z,6.53
2019-01-27T07:36:57.862Z,5.60
2019-01-27T07:47:36.458Z,8.83
2019-01-27T07:57:57.826Z,7.30
2019-01-27T08:08:21.602Z,6.50
2019-01-27T08:18:49.622Z,6.40
2019-01-27T08:29:10.378Z,5.63
2019-01-27T08:39:41.267Z,5.83
2019-01-27T08:49:44.858Z,6.00
2019-01-27T08:59:48.450Z,5.03
2019-01-27T09:10:06.628Z,5.30
2019-01-27T09:20:23.206Z,5.10
2019-01-27T09:30:55.036Z,5.33
2019-01-27T09:41:11.059Z,4.50
2019-01-27T09:51:25.666Z,4.60
2019-01-27T10:01:37.106Z,3.83
2019-01-27T10:11:50.012Z,4.37
2019-01-27T10:22:11.691Z,3.37
2019-01-27T10:32:32.505Z,3.80
2019-01-27T10:42:46.174Z,3.27
2019-01-27T10:53:01.598Z,3.77
2019-01-27T11:03:26.467Z,2.70
2019-01-27T11:13:49.960Z,3.47
2019-01-27T11:24:32.477Z,3.30
2019-01-27T11:34:57.986Z,2.53
2019-01-27T11:45:38.797Z,3.57
2019-01-27T11:55:42.370Z,2.50
2019-01-27T12:05:45.978Z,2.43
2019-01-27T12:15:49.580Z,3.17
2019-01-27T12:25:53.205Z,3.67
2019-01-27T12:35:57.883Z,3.30
2019-01-27T12:46:01.485Z,4.00
2019-01-27T12:56:24.375Z,4.47
2019-01-27T13:06:27.942Z,3.93
2019-01-27T13:16:31.573Z,4.43
2019-01-27T13:26:35.252Z,4.13
2019-01-27T13:36:42.062Z,4.80
2019-01-27T13:46:45.638Z,4.43
2019-01-27T13:56:49.214Z,3.60
2019-01-27T14:06:52.803Z,4.30
2019-01-27T14:16:56.417Z,3.63
2019-01-27T14:27:00.015Z,3.90
2019-01-27T14:37:12.511Z,3.53
2019-01-27T14:47:16.099Z,4.60
2019-01-27T14:57:19.706Z,4.20
2019-01-27T15:07:23.314Z,4.30
2019-01-27T15:17:26.902Z,3.93
2019-01-27T15:27:30.490Z,4.93
2019-01-27T15:37:34.079Z,5.93
2019-01-27T15:47:37.663Z,7.60
2019-01-27T15:57:49.319Z,5.73
2019-01-27T16:07:52.910Z,6.03
2019-01-27T16:17:56.648Z,7.60
2019-01-27T16:28:00.221Z,8.83
2019-01-27T16:38:03.819Z,6.63
2019-01-27T16:48:07.419Z,6.10
2019-01-27T16:58:11.015Z,7.17
2019-01-27T17:08:14.616Z,8.90
2019-01-27T17:18:18.207Z,6.80
2019-01-27T17:28:21.854Z,9.23
2019-01-27T17:38:25.943Z,8.53
2019-01-27T17:48:29.515Z,9.53
2019-01-27T17:59:11.476Z,9.63
2019-01-27T18:09:18.290Z,10.63
2019-01-27T18:19:21.966Z,8.23
2019-01-27T18:29:25.544Z,8.70
2019-01-27T18:39:29.141Z,10.30
2019-01-27T18:49:32.763Z,12.53
2019-01-27T18:59:54.237Z,10.93
2019-01-27T19:10:15.849Z,13.80
2019-01-27T19:20:44.615Z,14.07
2019-01-27T19:31:00.227Z,14.37
2019-01-27T19:41:28.966Z,10.50
2019-01-27T19:51:49.343Z,14.17
2019-01-27T20:02:24.226Z,8.83
2019-01-27T20:12:46.999Z,5.00
2019-01-27T20:23:08.606Z,4.37
2019-01-27T20:33:30.274Z,5.20
2019-01-27T20:43:53.246Z,7.17
2019-01-27T20:54:16.368Z,6.67
2019-01-27T21:04:36.302Z,9.77
2019-01-27T21:14:58.993Z,4.07
2019-01-27T21:25:02.597Z,2.53
2019-01-27T21:35:08.478Z,2.53
2019-01-27T21:45:12.587Z,4.17
2019-01-27T21:55:16.169Z,1.77
2019-01-27T22:05:19.745Z,4.83
2019-01-27T22:15:23.352Z,6.53
2019-01-27T22:25:26.918Z,7.07
2019-01-27T22:35:30.518Z,10.87
2019-01-27T22:45:34.098Z,5.07
2019-01-27T22:55:37.678Z,3.93
2019-01-27T23:05:41.270Z,6.83
2019-01-27T23:15:44.878Z,6.67
2019-01-27T23:25:50.311Z,4.53
2019-01-27T23:35:53.838Z,9.23
2019-01-27T23:45:57.422Z,7.80
2019-01-27T23:56:01.003Z,4.97
